Time;durP1;ratioP1;P1;durP2;ratioP2;P2;SDS_P1;SDS_P2;PMS_P1;PMS_P2;Temp;Humidity;BMP_temperature;BMP_pressure;BME280_temperature;BME280_humidity;BME280_pressure;Samples;Min_cycle;Max_cycle;Signal;HPM_P1;HPM_P2
2021/11/05 00:01:13;;;;;;;23.13;12.38;;;;;;;;;;5041799;28;20052;-67
2021/11/05 00:03:40;;;;;;;20.40;11.70;;;;;;;;;;5052727;28;20081;-67
2021/11/05 00:06:06;;;;;;;21.65;13.05;;;;;;;;;;5046406;28;20049;-66
2021/11/05 00:08:33;;;;;;;20.83;13.15;;;;;;;;;;5053074;28;20552;-66
2021/11/05 00:10:59;;;;;;;24.60;13.43;;;;;;;;;;5041322;28;20049;-66
2021/11/05 00:13:25;;;;;;;22.55;12.77;;;;;;;;;;5050396;28;20053;-66
2021/11/05 00:15:52;;;;;;;21.77;12.68;;;;;;;;;;5046838;28;20049;-68
2021/11/05 00:18:18;;;;;;;21.50;11.98;;;;;;;;;;5053889;28;20482;-67
2021/11/05 00:20:45;;;;;;;20.60;13.25;;;;;;;;;;5053379;28;20045;-67
2021/11/05 00:23:13;;;;;;;20.20;11.95;;;;;;;;;;5041934;28;20056;-67
2021/11/05 00:25:39;;;;;;;18.58;12.10;;;;;;;;;;5048057;28;20041;-67
2021/11/05 00:28:06;;;;;;;20.60;11.32;;;;;;;;;;5046820;28;20420;-67
2021/11/05 00:30:32;;;;;;;20.02;10.65;;;;;;;;;;5053707;28;20048;-67
2021/11/05 00:32:58;;;;;;;19.85;10.85;;;;;;;;;;5047087;28;20426;-67
2021/11/05 00:35:25;;;;;;;18.08;10.90;;;;;;;;;;5052979;28;20056;-67
2021/11/05 00:37:51;;;;;;;19.83;11.75;;;;;;;;;;5047811;28;20052;-67
2021/11/05 00:40:18;;;;;;;16.50;10.57;;;;;;;;;;5041319;28;20059;-67
2021/11/05 00:42:44;;;;;;;20.10;11.10;;;;;;;;;;5052788;28;20049;-67
2021/11/05 00:45:11;;;;;;;20.00;11.95;;;;;;;;;;5045849;28;20440;-67
2021/11/05 00:47:37;;;;;;;20.45;11.23;;;;;;;;;;5052656;28;20391;-67
2021/11/05 00:50:04;;;;;;;19.52;11.50;;;;;;;;;;5046013;28;20410;-67
2021/11/05 00:52:31;;;;;;;18.50;10.25;;;;;;;;;;5046115;28;20060;-67
2021/11/05 00:54:57;;;;;;;20.85;11.30;;;;;;;;;;5049818;28;20053;-67
2021/11/05 00:57:23;;;;;;;19.80;11.35;;;;;;;;;;5045827;28;20053;-67
2021/11/05 00:59:50;;;;;;;16.48;10.32;;;;;;;;;;5051638;28;20053;-67
2021/11/05 01:02:16;;;;;;;16.50;10.82;;;;;;;;;;5045699;28;20053;-67
2021/11/05 01:04:43;;;;;;;18.67;11.07;;;;;;;;;;5050632;28;20045;-67
2021/11/05 01:07:09;;;;;;;17.08;10.80;;;;;;;;;;5045170;28;20045;-67
2021/11/05 01:09:36;;;;;;;16.38;10.10;;;;;;;;;;5051457;28;20049;-67
2021/11/05 01:12:02;;;;;;;17.48;10.63;;;;;;;;;;5052416;28;20045;-67
2021/11/05 01:14:29;;;;;;;16.00;10.13;;;;;;;;;;5043715;28;20507;-67
2021/11/05 01:16:58;;;;;;;17.23;10.05;;;;;;;;;;5042714;28;20045;-67
2021/11/05 01:19:25;;;;;;;18.25;10.15;;;;;;;;;;5045087;28;20071;-67
2021/11/05 01:21:51;;;;;;;14.98;10.32;;;;;;;;;;5051721;28;20131;-67
2021/11/05 01:24:18;;;;;;;15.80;9.60;;;;;;;;;;5044724;28;20053;-67
2021/11/05 01:26:44;;;;;;;17.25;10.10;;;;;;;;;;5052221;28;20055;-67
2021/11/05 01:29:10;;;;;;;16.52;9.75;;;;;;;;;;5042348;28;20048;-67
2021/11/05 01:31:37;;;;;;;14.65;9.57;;;;;;;;;;5046251;28;20114;-67
2021/11/05 01:34:05;;;;;;;13.38;7.97;;;;;;;;;;5044723;28;20068;-67
2021/11/05 01:36:31;;;;;;;21.58;10.15;;;;;;;;;;5045348;28;20119;-66
2021/11/05 01:38:57;;;;;;;17.63;9.60;;;;;;;;;;5051013;28;20045;-67
2021/11/05 01:41:24;;;;;;;16.25;9.25;;;;;;;;;;5045778;28;20059;-67
2021/11/05 01:43:51;;;;;;;14.57;9.18;;;;;;;;;;5043311;28;20803;-67
2021/11/05 01:46:18;;;;;;;16.27;9.98;;;;;;;;;;5044253;28;20429;-67
2021/11/05 01:48:44;;;;;;;15.48;9.13;;;;;;;;;;5050599;28;20045;-67
2021/11/05 01:51:10;;;;;;;19.15;9.52;;;;;;;;;;5051084;28;20049;-67
2021/11/05 01:53:37;;;;;;;19.17;9.25;;;;;;;;;;5044651;28;20061;-67
2021/11/05 01:56:04;;;;;;;15.82;9.48;;;;;;;;;;5045913;28;20076;-67
2021/11/05 01:58:30;;;;;;;15.93;8.65;;;;;;;;;;5041137;28;20048;-67
2021/11/05 02:00:56;;;;;;;15.75;9.23;;;;;;;;;;5050402;28;20529;-67
2021/11/05 02:03:23;;;;;;;14.43;8.88;;;;;;;;;;5045665;28;20531;-67
2021/11/05 02:05:53;;;;;;;18.55;9.43;;;;;;;;;;5050226;28;20045;-67
2021/11/05 02:08:20;;;;;;;19.92;9.80;;;;;;;;;;5051094;28;20055;-67
2021/11/05 02:10:47;;;;;;;13.68;8.82;;;;;;;;;;5039430;28;20140;-67
2021/11/05 02:13:13;;;;;;;18.20;8.80;;;;;;;;;;5046459;28;20040;-67
2021/11/05 02:15:40;;;;;;;17.08;9.35;;;;;;;;;;5043364;28;20049;-67
2021/11/05 02:18:08;;;;;;;16.60;8.98;;;;;;;;;;5050465;28;20044;-67
2021/11/05 02:20:35;;;;;;;16.33;8.85;;;;;;;;;;5043580;28;20045;-67
2021/11/05 02:23:04;;;;;;;15.98;9.68;;;;;;;;;;5049366;28;20049;-67
2021/11/05 02:25:30;;;;;;;16.52;10.00;;;;;;;;;;5044735;28;20055;-67
2021/11/05 02:27:57;;;;;;;15.85;9.52;;;;;;;;;;5043572;28;20418;-68
2021/11/05 02:30:23;;;;;;;17.27;8.93;;;;;;;;;;5050870;28;20045;-67
2021/11/05 02:32:50;;;;;;;17.70;8.88;;;;;;;;;;5043148;28;20498;-67
2021/11/05 02:35:16;;;;;;;18.33;9.32;;;;;;;;;;5050880;28;20057;-67
2021/11/05 02:37:43;;;;;;;14.80;8.48;;;;;;;;;;5039939;28;20071;-67
2021/11/05 02:40:10;;;;;;;14.50;8.10;;;;;;;;;;5049205;28;20056;-67
2021/11/05 02:42:37;;;;;;;13.13;7.82;;;;;;;;;;5050114;28;20132;-67
2021/11/05 02:45:04;;;;;;;16.60;8.57;;;;;;;;;;5044179;28;20052;-67
2021/11/05 02:47:31;;;;;;;13.50;8.32;;;;;;;;;;5050828;28;20075;-67
2021/11/05 02:49:59;;;;;;;15.93;8.07;;;;;;;;;;5040174;28;20044;-68
2021/11/05 02:52:25;;;;;;;13.37;8.07;;;;;;;;;;5045888;28;20506;-67
2021/11/05 02:54:51;;;;;;;13.60;7.55;;;;;;;;;;5043426;28;20045;-67
2021/11/05 02:57:18;;;;;;;20.50;7.60;;;;;;;;;;5050760;28;20059;-67
2021/11/05 02:59:44;;;;;;;14.55;8.13;;;;;;;;;;5046681;28;20055;-67
2021/11/05 03:02:10;;;;;;;15.20;7.70;;;;;;;;;;5048116;28;20049;-67
2021/11/05 03:04:37;;;;;;;11.63;7.30;;;;;;;;;;5043092;28;20567;-67
2021/11/05 03:07:05;;;;;;;18.27;8.10;;;;;;;;;;5043379;28;20143;-67
2021/11/05 03:09:33;;;;;;;13.38;6.82;;;;;;;;;;5050862;28;20052;-67
2021/11/05 03:11:59;;;;;;;12.93;7.80;;;;;;;;;;5044165;28;20065;-67
2021/11/05 03:14:26;;;;;;;11.63;7.15;;;;;;;;;;5049935;28;20066;-67
2021/11/05 03:16:53;;;;;;;13.38;6.80;;;;;;;;;;5039553;28;20072;-67
2021/11/05 03:19:19;;;;;;;14.60;7.35;;;;;;;;;;5045501;28;20047;-67
2021/11/05 03:21:46;;;;;;;15.27;6.75;;;;;;;;;;5049434;28;20048;-67
2021/11/05 03:24:12;;;;;;;12.82;6.25;;;;;;;;;;5043363;28;20502;-67
2021/11/05 03:26:39;;;;;;;11.77;5.93;;;;;;;;;;5049478;28;20071;-67
2021/11/05 03:29:08;;;;;;;11.73;6.25;;;;;;;;;;5045329;28;20076;-67
2021/11/05 03:31:35;;;;;;;10.98;6.22;;;;;;;;;;5045853;28;20231;-67
2021/11/05 03:34:02;;;;;;;11.30;6.40;;;;;;;;;;5048544;28;20441;-67
2021/11/05 03:36:28;;;;;;;10.70;5.80;;;;;;;;;;5053569;28;20048;-67
2021/11/05 03:38:55;;;;;;;14.38;5.22;;;;;;;;;;5053633;28;20440;-67
2021/11/05 03:41:21;;;;;;;15.50;5.55;;;;;;;;;;5047934;28;20048;-67
2021/11/05 03:43:48;;;;;;;10.45;5.82;;;;;;;;;;5049602;28;20045;-67
2021/11/05 03:46:14;;;;;;;12.23;5.80;;;;;;;;;;5042833;28;20071;-67
2021/11/05 03:48:41;;;;;;;13.32;5.90;;;;;;;;;;5049834;28;20061;-67
2021/11/05 03:51:07;;;;;;;8.40;4.72;;;;;;;;;;5028487;28;20107;-67
2021/11/05 03:53:34;;;;;;;12.35;5.50;;;;;;;;;;5033762;28;20400;-67
2021/11/05 03:56:01;;;;;;;12.13;5.53;;;;;;;;;;5033662;28;20099;-67
2021/11/05 03:58:27;;;;;;;11.50;5.82;;;;;;;;;;5021908;28;20041;-67
2021/11/05 04:00:53;;;;;;;8.80;5.25;;;;;;;;;;5035067;28;20041;-67
2021/11/05 04:03:20;;;;;;;8.85;5.15;;;;;;;;;;5046780;28;20049;-67
2021/11/05 04:05:47;;;;;;;15.77;5.60;;;;;;;;;;5052250;28;20076;-67
2021/11/05 04:08:14;;;;;;;12.55;5.53;;;;;;;;;;5045826;28;20045;-67
2021/11/05 04:10:40;;;;;;;8.57;5.55;;;;;;;;;;5049023;28;20059;-67
2021/11/05 04:13:07;;;;;;;10.32;5.22;;;;;;;;;;5047548;28;20450;-67
2021/11/05 04:15:33;;;;;;;11.35;4.95;;;;;;;;;;5046822;28;20056;-67
2021/11/05 04:17:59;;;;;;;11.95;4.50;;;;;;;;;;5053690;28;20196;-68
2021/11/05 04:20:26;;;;;;;10.23;5.38;;;;;;;;;;5047341;28;20425;-67
2021/11/05 04:22:52;;;;;;;15.05;5.03;;;;;;;;;;5053092;28;20053;-67
2021/11/05 04:25:18;;;;;;;10.20;5.43;;;;;;;;;;5041656;28;20060;-68
2021/11/05 04:27:45;;;;;;;8.50;5.05;;;;;;;;;;5048333;28;20439;-67
2021/11/05 04:30:13;;;;;;;9.10;5.38;;;;;;;;;;5051470;28;20052;-67
2021/11/05 04:32:40;;;;;;;9.93;4.67;;;;;;;;;;5050129;28;20044;-67
2021/11/05 04:35:09;;;;;;;12.18;4.45;;;;;;;;;;5052278;28;20289;-67
2021/11/05 04:37:36;;;;;;;11.52;4.68;;;;;;;;;;5046596;28;20057;-67
2021/11/05 04:40:03;;;;;;;10.48;4.53;;;;;;;;;;5045284;28;20047;-67
2021/11/05 04:42:29;;;;;;;10.88;4.82;;;;;;;;;;5043875;28;20052;-67
2021/11/05 04:44:56;;;;;;;11.43;4.88;;;;;;;;;;5052039;28;20051;-67
2021/11/05 04:47:22;;;;;;;9.15;4.47;;;;;;;;;;5046454;28;20060;-67
2021/11/05 04:49:49;;;;;;;8.85;4.75;;;;;;;;;;5049621;28;20049;-67
2021/11/05 04:52:15;;;;;;;11.63;4.88;;;;;;;;;;5047287;28;20048;-67
2021/11/05 04:54:42;;;;;;;7.72;4.57;;;;;;;;;;5043303;28;20616;-67
2021/11/05 04:57:09;;;;;;;10.05;4.85;;;;;;;;;;5052015;28;20057;-67
2021/11/05 04:59:36;;;;;;;11.07;5.28;;;;;;;;;;5044928;28;20053;-67
2021/11/05 05:02:03;;;;;;;10.93;4.80;;;;;;;;;;5052491;28;20092;-67
2021/11/05 05:04:29;;;;;;;13.32;5.88;;;;;;;;;;5044585;28;20379;-67
2021/11/05 05:06:56;;;;;;;13.77;6.85;;;;;;;;;;5043884;28;20067;-67
2021/11/05 05:09:22;;;;;;;14.40;5.93;;;;;;;;;;5051531;28;20053;-67
2021/11/05 05:11:49;;;;;;;11.13;5.43;;;;;;;;;;5044852;28;20052;-67
2021/11/05 05:14:15;;;;;;;16.25;8.07;;;;;;;;;;5052376;28;20045;-67
2021/11/05 05:16:42;;;;;;;14.80;7.07;;;;;;;;;;5045715;28;20057;-67
2021/11/05 05:19:08;;;;;;;20.30;8.57;;;;;;;;;;5047890;28;20056;-67
2021/11/05 05:21:35;;;;;;;17.05;7.35;;;;;;;;;;5043532;28;20052;-67
2021/11/05 05:24:01;;;;;;;11.00;5.95;;;;;;;;;;5052526;28;20061;-67
2021/11/05 05:26:27;;;;;;;14.43;6.55;;;;;;;;;;5051614;28;20048;-68
2021/11/05 05:28:54;;;;;;;12.35;6.75;;;;;;;;;;5044727;28;20064;-67
2021/11/05 05:31:20;;;;;;;11.88;7.07;;;;;;;;;;5050055;28;20045;-67
2021/11/05 05:33:46;;;;;;;13.63;7.30;;;;;;;;;;5037668;28;20055;-68
2021/11/05 05:36:13;;;;;;;13.23;7.40;;;;;;;;;;5050847;28;20059;-67
2021/11/05 05:38:39;;;;;;;15.75;7.80;;;;;;;;;;5044968;28;20440;-67
2021/11/05 05:41:09;;;;;;;13.85;7.15;;;;;;;;;;5051228;28;20068;-67
2021/11/05 05:43:36;;;;;;;16.08;7.93;;;;;;;;;;5051089;28;20053;-67
2021/11/05 05:46:02;;;;;;;14.18;8.15;;;;;;;;;;5040055;28;20053;-67
2021/11/05 05:48:28;;;;;;;14.02;8.32;;;;;;;;;;5046831;28;20045;-67
2021/11/05 05:50:55;;;;;;;13.98;8.20;;;;;;;;;;5043585;28;20056;-67
2021/11/05 05:53:21;;;;;;;15.50;8.40;;;;;;;;;;5051044;28;20414;-67
2021/11/05 05:55:48;;;;;;;13.48;8.57;;;;;;;;;;5042403;28;20068;-67
2021/11/05 05:58:14;;;;;;;17.02;8.43;;;;;;;;;;5049897;28;20139;-67
2021/11/05 06:00:40;;;;;;;21.42;9.15;;;;;;;;;;5046472;28;20041;-67
2021/11/05 06:03:09;;;;;;;17.25;8.73;;;;;;;;;;5044797;28;20048;-67
2021/11/05 06:05:36;;;;;;;13.05;8.15;;;;;;;;;;5050659;28;20056;-67
2021/11/05 06:08:02;;;;;;;24.50;10.32;;;;;;;;;;5045035;28;20053;-67
2021/11/05 06:10:28;;;;;;;15.82;8.95;;;;;;;;;;5051582;28;20406;-67
2021/11/05 06:12:55;;;;;;;15.13;9.02;;;;;;;;;;5037288;28;20037;-67
2021/11/05 06:15:21;;;;;;;15.18;8.23;;;;;;;;;;5048921;28;20048;-67
2021/11/05 06:17:47;;;;;;;23.17;10.73;;;;;;;;;;5050037;28;20386;-67
2021/11/05 06:20:14;;;;;;;26.40;10.65;;;;;;;;;;5046257;28;20095;-67
2021/11/05 06:22:43;;;;;;;55.60;11.07;;;;;;;;;;5050561;28;20048;-67
2021/11/05 06:25:10;;;;;;;106.72;12.27;;;;;;;;;;5039815;28;20055;-67
2021/11/05 06:27:36;;;;;;;115.60;13.88;;;;;;;;;;5045769;28;20064;-67
2021/11/05 06:30:04;;;;;;;87.13;13.35;;;;;;;;;;5044359;28;20056;-67
2021/11/05 06:32:30;;;;;;;100.03;15.07;;;;;;;;;;5050633;28;20056;-67
2021/11/05 06:34:57;;;;;;;143.55;12.68;;;;;;;;;;5043758;28;20398;-67
2021/11/05 06:37:23;;;;;;;92.57;13.02;;;;;;;;;;5050193;28;20432;-67
2021/11/05 06:39:50;;;;;;;52.53;11.18;;;;;;;;;;5045505;28;20063;-67
2021/11/05 06:42:21;;;;;;;108.53;11.90;;;;;;;;;;5039746;28;20045;-67
2021/11/05 06:44:51;;;;;;;93.00;11.82;;;;;;;;;;5050276;28;20053;-67
2021/11/05 06:47:18;;;;;;;47.08;10.20;;;;;;;;;;5042642;28;20053;-67
2021/11/05 06:49:44;;;;;;;72.95;10.70;;;;;;;;;;5050467;28;20055;-67
2021/11/05 06:52:11;;;;;;;87.80;10.48;;;;;;;;;;5041440;28;20057;-67
2021/11/05 06:54:40;;;;;;;125.43;13.73;;;;;;;;;;5047439;28;20060;-67
2021/11/05 06:57:07;;;;;;;54.80;10.88;;;;;;;;;;5050490;28;20080;-67
2021/11/05 06:59:34;;;;;;;46.33;9.73;;;;;;;;;;5042641;28;20059;-67
2021/11/05 07:02:01;;;;;;;27.20;9.25;;;;;;;;;;5050100;28;20079;-67
2021/11/05 07:04:28;;;;;;;54.78;9.90;;;;;;;;;;5037651;28;20123;-67
2021/11/05 07:06:55;;;;;;;91.22;10.05;;;;;;;;;;5045377;28;20048;-67
2021/11/05 07:09:22;;;;;;;63.42;9.80;;;;;;;;;;5043699;28;20506;-67
2021/11/05 07:11:49;;;;;;;56.95;10.60;;;;;;;;;;5049419;28;20052;-67
2021/11/05 07:14:15;;;;;;;40.80;9.32;;;;;;;;;;5045910;28;20516;-67
2021/11/05 07:16:41;;;;;;;37.30;8.25;;;;;;;;;;5047612;28;20064;-67
2021/11/05 07:19:08;;;;;;;70.35;9.20;;;;;;;;;;5045616;28;20057;-67
2021/11/05 07:21:35;;;;;;;24.73;8.35;;;;;;;;;;5039142;28;20057;-67
2021/11/05 07:24:04;;;;;;;52.88;11.07;;;;;;;;;;5051173;28;20052;-67
2021/11/05 07:26:45;;;;;;;29.05;9.18;;;;;;;;;;5043538;28;20064;-67
2021/11/05 07:29:12;;;;;;;42.42;9.70;;;;;;;;;;5050019;28;20045;-67
2021/11/05 07:31:40;;;;;;;21.77;9.23;;;;;;;;;;5038287;28;20075;-67
2021/11/05 07:34:06;;;;;;;17.35;9.13;;;;;;;;;;5045826;28;20140;-68
2021/11/05 07:36:32;;;;;;;15.07;9.15;;;;;;;;;;5051252;28;20049;-68
2021/11/05 07:38:59;;;;;;;15.73;7.78;;;;;;;;;;5044164;28;20417;-67
2021/11/05 07:41:25;;;;;;;15.88;9.13;;;;;;;;;;5050783;28;20073;-68
2021/11/05 07:43:52;;;;;;;16.35;9.20;;;;;;;;;;5043505;28;20053;-67
2021/11/05 07:46:19;;;;;;;14.68;8.73;;;;;;;;;;5045818;28;20045;-67
2021/11/05 07:48:45;;;;;;;14.23;9.20;;;;;;;;;;5038970;28;20080;-67
2021/11/05 07:51:11;;;;;;;14.35;8.98;;;;;;;;;;5049469;28;20049;-67
2021/11/05 07:53:38;;;;;;;17.98;8.95;;;;;;;;;;5049910;28;20045;-67
2021/11/05 07:56:04;;;;;;;16.05;8.48;;;;;;;;;;5040599;28;20049;-67
2021/11/05 07:58:42;;;;;;;13.02;8.35;;;;;;;;;;5046807;28;20041;-67
2021/11/05 08:01:08;;;;;;;18.50;9.48;;;;;;;;;;5039115;28;20044;-67
2021/11/05 08:03:34;;;;;;;12.85;8.15;;;;;;;;;;5049615;28;20103;-67
2021/11/05 08:06:01;;;;;;;14.05;8.93;;;;;;;;;;5043567;28;20448;-67
2021/11/05 08:08:28;;;;;;;16.23;8.07;;;;;;;;;;5049690;28;20045;-67
2021/11/05 08:10:56;;;;;;;15.50;9.02;;;;;;;;;;5043983;28;20064;-67
2021/11/05 08:13:22;;;;;;;14.38;8.63;;;;;;;;;;5045179;28;20045;-67
2021/11/05 08:15:48;;;;;;;15.48;8.75;;;;;;;;;;5045873;28;20488;-67
2021/11/05 08:18:15;;;;;;;16.77;9.38;;;;;;;;;;5046274;28;20068;-67
2021/11/05 08:20:42;;;;;;;18.33;9.48;;;;;;;;;;5051520;28;20048;-67
2021/11/05 08:23:09;;;;;;;14.77;9.65;;;;;;;;;;5047553;28;20505;-67
2021/11/05 08:25:35;;;;;;;16.60;9.50;;;;;;;;;;5051793;28;20045;-67
2021/11/05 08:28:02;;;;;;;22.75;10.32;;;;;;;;;;5042086;28;20045;-67
2021/11/05 08:30:28;;;;;;;17.40;9.23;;;;;;;;;;5052688;28;20091;-67
2021/11/05 08:32:56;;;;;;;20.98;9.55;;;;;;;;;;5052651;28;20053;-67
2021/11/05 08:35:24;;;;;;;16.40;9.23;;;;;;;;;;5045753;28;20055;-67
2021/11/05 08:37:50;;;;;;;19.70;9.73;;;;;;;;;;5052006;28;20053;-67
2021/11/05 08:40:17;;;;;;;16.90;9.10;;;;;;;;;;5041598;28;20053;-67
2021/11/05 08:42:45;;;;;;;19.00;8.48;;;;;;;;;;5048250;28;20060;-67
2021/11/05 08:45:11;;;;;;;14.80;7.47;;;;;;;;;;5045671;28;20076;-67
2021/11/05 08:47:38;;;;;;;24.05;9.70;;;;;;;;;;5052031;28;20053;-67
2021/11/05 08:50:06;;;;;;;18.45;8.60;;;;;;;;;;5052139;28;20508;-67
2021/11/05 08:52:32;;;;;;;12.60;8.30;;;;;;;;;;5044072;28;20045;-67
2021/11/05 08:55:05;;;;;;;21.15;8.57;;;;;;;;;;5045526;28;20037;-68
2021/11/05 08:57:35;;;;;;;15.55;7.82;;;;;;;;;;5045413;28;20563;-67
2021/11/05 09:00:04;;;;;;;19.83;9.70;;;;;;;;;;5052726;28;20052;-67
2021/11/05 09:02:30;;;;;;;17.67;8.45;;;;;;;;;;5046818;28;20128;-67
2021/11/05 09:04:56;;;;;;;17.33;8.48;;;;;;;;;;5052263;28;20374;-67
2021/11/05 09:07:24;;;;;;;16.98;8.40;;;;;;;;;;5042305;28;20052;-68
2021/11/05 09:09:51;;;;;;;16.87;7.60;;;;;;;;;;5047431;28;20052;-68
2021/11/05 09:12:18;;;;;;;14.32;7.57;;;;;;;;;;5052092;28;20292;-67
2021/11/05 09:14:44;;;;;;;14.80;7.57;;;;;;;;;;5043817;28;20080;-67
2021/11/05 09:17:13;;;;;;;;;;;;;;;;;;5052006;28;20045;-65
2021/11/05 09:19:39;;;;;;;12.07;6.57;;;;;;;;;;5041863;28;19928;-67
2021/11/05 09:22:05;;;;;;;14.98;7.72;;;;;;;;;;5044155;28;20052;-67
2021/11/05 09:24:33;;;;;;;15.45;6.78;;;;;;;;;;5043182;28;20053;-67
2021/11/05 09:27:00;;;;;;;15.38;7.45;;;;;;;;;;5050030;28;20052;-67
2021/11/05 09:29:26;;;;;;;16.15;7.57;;;;;;;;;;5051511;28;20389;-66
2021/11/05 09:31:53;;;;;;;14.45;7.13;;;;;;;;;;5044940;28;20646;-67
2021/11/05 09:34:19;;;;;;;10.88;6.35;;;;;;;;;;5046902;28;20049;-67
2021/11/05 09:36:45;;;;;;;16.10;7.60;;;;;;;;;;5038540;28;20049;-68
2021/11/05 09:39:12;;;;;;;10.60;6.80;;;;;;;;;;5051099;28;20048;-68
2021/11/05 09:41:38;;;;;;;14.48;6.70;;;;;;;;;;5043576;28;20049;-67
2021/11/05 09:44:04;;;;;;;21.88;8.18;;;;;;;;;;5050675;28;20096;-67
2021/11/05 09:46:31;;;;;;;21.25;7.07;;;;;;;;;;5050630;28;20044;-67
2021/11/05 09:48:57;;;;;;;14.35;7.95;;;;;;;;;;5037183;28;20274;-67
2021/11/05 09:51:25;;;;;;;13.40;8.25;;;;;;;;;;5048669;28;20057;-68
2021/11/05 09:53:51;;;;;;;19.33;8.50;;;;;;;;;;5042185;28;20513;-68
2021/11/05 09:56:18;;;;;;;20.13;8.65;;;;;;;;;;5051151;28;20041;-68
2021/11/05 09:58:45;;;;;;;18.70;7.60;;;;;;;;;;5043930;28;20056;-68
2021/11/05 10:01:12;;;;;;;17.67;7.15;;;;;;;;;;5046470;28;20139;-67
2021/11/05 10:03:39;;;;;;;10.88;6.53;;;;;;;;;;5045952;28;20045;-68
2021/11/05 10:06:09;;;;;;;16.90;7.20;;;;;;;;;;5044079;28;20057;-68
2021/11/05 10:08:36;;;;;;;14.63;6.88;;;;;;;;;;5050089;28;20063;-68
2021/11/05 10:11:20;;;;;;;15.02;7.25;;;;;;;;;;5043791;28;20041;-67
2021/11/05 10:13:46;;;;;;;17.17;7.22;;;;;;;;;;5037124;28;20053;-67
2021/11/05 10:16:14;;;;;;;11.52;6.00;;;;;;;;;;5018023;28;20060;-68
2021/11/05 10:18:52;;;;;;;28.77;9.02;;;;;;;;;;5028024;28;20045;-67
2021/11/05 10:21:19;;;;;;;16.77;7.25;;;;;;;;;;5024154;28;20053;-68
2021/11/05 10:23:46;;;;;;;14.68;7.00;;;;;;;;;;5030505;28;20396;-68
2021/11/05 10:26:25;;;;;;;14.63;7.22;;;;;;;;;;5030991;28;20336;-68
2021/11/05 10:28:51;;;;;;;13.80;7.13;;;;;;;;;;5019011;28;20140;-68
2021/11/05 10:31:20;;;;;;;11.88;6.88;;;;;;;;;;5028987;28;20054;-68
2021/11/05 10:33:50;;;;;;;13.70;6.53;;;;;;;;;;5023710;28;20060;-66
2021/11/05 10:36:21;;;;;;;11.10;6.90;;;;;;;;;;5029857;28;20061;-67
2021/11/05 10:38:50;;;;;;;16.63;7.03;;;;;;;;;;5022639;28;20053;-68
2021/11/05 10:41:19;;;;;;;14.45;6.50;;;;;;;;;;5029383;28;20053;-67
2021/11/05 10:43:47;;;;;;;12.57;6.10;;;;;;;;;;5039285;28;20060;-68
2021/11/05 10:46:30;;;;;;;12.93;6.47;;;;;;;;;;5049726;28;20049;-68
2021/11/05 10:48:58;;;;;;;16.20;5.85;;;;;;;;;;5049549;28;20048;-69
2021/11/05 10:51:26;;;;;;;13.30;5.63;;;;;;;;;;5043285;28;20040;-68
2021/11/05 10:53:54;;;;;;;21.77;5.93;;;;;;;;;;5045712;28;20053;-68
2021/11/05 10:56:24;;;;;;;20.77;6.15;;;;;;;;;;5040933;28;20501;-68
2021/11/05 10:58:50;;;;;;;16.85;5.22;;;;;;;;;;5049718;28;20083;-68
2021/11/05 11:01:20;;;;;;;14.50;5.15;;;;;;;;;;5043492;28;20053;-67
2021/11/05 11:03:46;;;;;;;;;;;;;;;;;;5050019;28;20061;-68
2021/11/05 11:06:20;;;;;;;9.32;4.32;;;;;;;;;;5042516;28;19938;-68
2021/11/05 11:08:51;;;;;;;13.73;4.85;;;;;;;;;;5040756;28;20053;-68
2021/11/05 11:11:25;;;;;;;15.48;4.55;;;;;;;;;;5049103;28;20555;-68
2021/11/05 11:14:04;;;;;;;11.10;4.68;;;;;;;;;;5042832;28;20057;-68
2021/11/05 11:16:32;;;;;;;12.65;4.30;;;;;;;;;;5049450;28;20053;-68
2021/11/05 11:19:04;;;;;;;13.48;3.88;;;;;;;;;;5044008;28;20076;-68
2021/11/05 11:21:35;;;;;;;18.15;5.00;;;;;;;;;;5045354;28;20072;-68
2021/11/05 11:24:03;;;;;;;12.30;3.65;;;;;;;;;;5039171;28;20068;-68
2021/11/05 11:26:30;;;;;;;9.57;2.63;;;;;;;;;;5048494;28;20053;-68
2021/11/05 11:28:57;;;;;;;11.07;3.15;;;;;;;;;;5042263;28;20064;-68
2021/11/05 11:31:23;;;;;;;14.77;3.70;;;;;;;;;;5048725;28;20060;-68
2021/11/05 11:33:53;;;;;;;8.48;3.40;;;;;;;;;;5046942;28;20052;-68
2021/11/05 11:36:20;;;;;;;13.02;4.30;;;;;;;;;;5036270;28;20048;-68
2021/11/05 11:38:48;;;;;;;20.75;4.03;;;;;;;;;;5048975;28;20495;-68
2021/11/05 11:41:15;;;;;;;13.05;3.38;;;;;;;;;;5042890;28;20076;-68
2021/11/05 11:43:41;;;;;;;13.50;3.63;;;;;;;;;;5049088;28;20055;-68
2021/11/05 11:46:08;;;;;;;12.82;3.83;;;;;;;;;;5043286;28;20045;-68
2021/11/05 11:48:42;;;;;;;8.95;3.05;;;;;;;;;;5044488;28;20049;-68
2021/11/05 11:51:14;;;;;;;9.60;2.50;;;;;;;;;;5047951;28;20045;-68
2021/11/05 11:53:41;;;;;;;9.57;2.50;;;;;;;;;;5046488;28;20049;-68
2021/11/05 11:56:07;;;;;;;17.67;4.40;;;;;;;;;;5052604;28;20049;-68
2021/11/05 11:58:34;;;;;;;27.58;7.43;;;;;;;;;;5046259;28;20045;-68
2021/11/05 12:01:18;;;;;;;16.15;4.60;;;;;;;;;;5052857;28;20048;-68
2021/11/05 12:03:56;;;;;;;12.23;3.42;;;;;;;;;;5039491;28;20057;-68
2021/11/05 12:06:22;;;;;;;9.02;2.45;;;;;;;;;;5052994;28;20056;-68
2021/11/05 12:08:50;;;;;;;10.65;2.28;;;;;;;;;;5046681;28;20053;-69
2021/11/05 12:11:27;;;;;;;8.85;2.33;;;;;;;;;;5052543;28;20049;-68
2021/11/05 12:13:55;;;;;;;18.03;2.37;;;;;;;;;;5052409;28;20422;-69
2021/11/05 12:16:26;;;;;;;12.07;3.17;;;;;;;;;;5040129;28;20286;-68
2021/11/05 12:19:00;;;;;;;8.10;2.22;;;;;;;;;;5050045;28;20107;-68
2021/11/05 12:21:28;;;;;;;7.65;1.50;;;;;;;;;;5046026;28;20095;-68
2021/11/05 12:24:24;;;;;;;10.88;1.90;;;;;;;;;;5052754;28;20048;-69
2021/11/05 12:26:56;;;;;;;10.95;1.90;;;;;;;;;;5046556;28;20052;-66
2021/11/05 12:29:29;;;;;;;8.75;1.50;;;;;;;;;;5048294;28;20052;-67
2021/11/05 12:31:55;;;;;;;7.55;1.17;;;;;;;;;;5041069;28;20063;-67
2021/11/05 12:34:23;;;;;;;4.25;1.23;;;;;;;;;;5052551;28;20045;-67
2021/11/05 12:36:51;;;;;;;13.05;1.70;;;;;;;;;;5048283;28;20048;-67
2021/11/05 12:39:28;;;;;;;6.50;1.40;;;;;;;;;;5051442;28;20048;-68
2021/11/05 12:41:56;;;;;;;4.75;2.05;;;;;;;;;;5048768;28;20055;-67
2021/11/05 12:44:23;;;;;;;7.57;1.42;;;;;;;;;;5040309;28;20139;-67
2021/11/05 12:46:49;;;;;;;6.22;1.17;;;;;;;;;;5051432;28;20044;-68
2021/11/05 12:49:17;;;;;;;5.88;1.23;;;;;;;;;;5044880;28;20061;-67
2021/11/05 12:51:45;;;;;;;10.33;2.10;;;;;;;;;;5051297;28;20053;-68
2021/11/05 12:54:13;;;;;;;9.98;1.38;;;;;;;;;;5045800;28;20048;-67
2021/11/05 12:56:41;;;;;;;4.60;1.10;;;;;;;;;;5047188;28;20040;-68
2021/11/05 12:59:09;;;;;;;2.30;0.90;;;;;;;;;;5047340;28;20053;-68
2021/11/05 13:01:36;;;;;;;5.25;0.90;;;;;;;;;;5044194;28;20525;-67
2021/11/05 13:04:07;;;;;;;7.95;1.27;;;;;;;;;;5051964;28;20056;-67
2021/11/05 13:06:34;;;;;;;4.03;0.60;;;;;;;;;;5044474;28;20057;-67
2021/11/05 13:09:00;;;;;;;1.77;0.40;;;;;;;;;;5049435;28;20059;-68
2021/11/05 13:11:27;;;;;;;7.80;0.70;;;;;;;;;;5038882;28;20045;-68
2021/11/05 13:13:55;;;;;;;6.90;0.75;;;;;;;;;;5050825;28;20564;-69
2021/11/05 13:16:22;;;;;;;5.20;0.60;;;;;;;;;;5052701;28;20080;-68
2021/11/05 13:18:49;;;;;;;5.00;0.77;;;;;;;;;;5044852;28;20115;-68
2021/11/05 13:21:23;;;;;;;2.30;0.60;;;;;;;;;;5051741;28;20053;-68
2021/11/05 13:23:49;;;;;;;4.00;0.70;;;;;;;;;;5038744;28;20055;-68
2021/11/05 13:26:23;;;;;;;7.22;1.48;;;;;;;;;;5047190;28;20057;-67
2021/11/05 13:28:49;;;;;;;3.85;0.90;;;;;;;;;;5044796;28;20049;-67
2021/11/05 13:31:19;;;;;;;2.88;0.50;;;;;;;;;;5051989;28;20052;-68
2021/11/05 13:33:46;;;;;;;5.82;0.90;;;;;;;;;;5045203;28;20147;-68
2021/11/05 13:36:14;;;;;;;7.38;1.00;;;;;;;;;;5048975;28;20055;-68
2021/11/05 13:38:41;;;;;;;1.25;0.50;;;;;;;;;;5043361;28;20045;-68
2021/11/05 13:41:09;;;;;;;6.22;0.90;;;;;;;;;;5044387;28;20147;-67
2021/11/05 13:43:37;;;;;;;5.95;0.50;;;;;;;;;;5050684;28;20064;-68
2021/11/05 13:46:04;;;;;;;3.25;0.43;;;;;;;;;;5045197;28;20398;-68
2021/11/05 13:48:33;;;;;;;3.53;0.40;;;;;;;;;;5050080;28;20041;-68
2021/11/05 13:51:07;;;;;;;1.27;0.40;;;;;;;;;;5040541;28;20049;-67
2021/11/05 13:53:35;;;;;;;5.45;2.20;;;;;;;;;;5045896;28;20045;-68
2021/11/05 13:56:15;;;;;;;6.25;0.60;;;;;;;;;;5051024;28;20048;-68
2021/11/05 13:58:42;;;;;;;1.50;0.40;;;;;;;;;;5049972;28;20144;-67
2021/11/05 14:01:15;;;;;;;2.63;0.55;;;;;;;;;;5051390;28;20055;-67
2021/11/05 14:03:41;;;;;;;4.88;0.60;;;;;;;;;;5042885;28;20122;-67
2021/11/05 14:06:12;;;;;;;7.85;0.90;;;;;;;;;;5044466;28;20060;-67
2021/11/05 14:08:50;;;;;;;5.00;0.57;;;;;;;;;;5043437;28;20056;-69
2021/11/05 14:11:29;;;;;;;3.60;1.00;;;;;;;;;;5051241;28;20428;-67
2021/11/05 14:13:56;;;;;;;6.97;0.80;;;;;;;;;;5043324;28;20059;-68
2021/11/05 14:16:24;;;;;;;6.85;0.73;;;;;;;;;;5050743;28;20056;-68
2021/11/05 14:19:04;;;;;;;1.40;0.40;;;;;;;;;;5040133;28;20052;-67
2021/11/05 14:21:30;;;;;;;8.40;1.17;;;;;;;;;;5046832;28;20041;-68
2021/11/05 14:24:20;;;;;;;10.07;0.73;;;;;;;;;;5050659;28;20048;-67
2021/11/05 14:26:48;;;;;;;10.70;1.52;;;;;;;;;;5045550;28;20056;-67
2021/11/05 14:29:15;;;;;;;;;;;;;;;;;;5051558;28;20048;-67
2021/11/05 14:31:57;;;;;;;8.55;0.85;;;;;;;;;;5039966;28;19925;-68
2021/11/05 14:34:25;;;;;;;4.25;0.63;;;;;;;;;;5045927;28;20057;-67